Time;durP1;ratioP1;P1;durP2;ratioP2;P2;SDS_P1;SDS_P2;PMS_P1;PMS_P2;Temp;Humidity;BMP_temperature;BMP_pressure;BME280_temperature;BME280_humidity;BME280_pressure;Samples;Min_cycle;Max_cycle;Signal;HPM_P1;HPM_P2
2021/05/02 00:01:58;;;;;;;68.55;49.38;;;;;;;9.47;70.05;99522.65;2208098;79;31146;-59
2021/05/02 00:05:03;;;;;;;66.67;48.28;;;;;;;9.47;70.43;99503.94;2228293;79;33123;-60
2021/05/02 00:08:06;;;;;;;70.47;47.30;;;;;;;9.45;70.16;99495.63;2226521;79;28868;-60
2021/05/02 00:11:10;;;;;;;66.65;46.88;;;;;;;9.44;70.20;99485.39;2206661;79;27713;-60
2021/05/02 00:14:13;;;;;;;70.28;47.93;;;;;;;9.48;70.20;99493.63;2187390;79;28806;-61
2021/05/02 00:17:15;;;;;;;69.58;48.40;;;;;;;9.51;70.37;99508.66;2225881;79;32113;-59
2021/05/02 00:20:21;;;;;;;71.07;49.30;;;;;;;9.47;70.29;99509.28;2221417;79;34189;-59
2021/05/02 00:23:24;;;;;;;69.25;49.45;;;;;;;9.52;70.29;99509.89;2209244;80;28859;-61
2021/05/02 00:26:26;;;;;;;70.35;48.98;;;;;;;9.55;70.54;99511.05;2187488;80;27686;-60
2021/05/02 00:29:30;;;;;;;70.25;49.10;;;;;;;9.54;70.23;99509.33;2194714;80;29730;-60
2021/05/02 00:32:35;;;;;;;72.82;49.53;;;;;;;9.53;70.28;99496.91;2178533;81;33474;-60
2021/05/02 00:35:39;;;;;;;72.10;50.00;;;;;;;9.54;70.33;99489.73;2178570;80;33118;-60
2021/05/02 00:38:41;;;;;;;71.37;49.40;;;;;;;9.50;70.53;99485.54;2147685;80;28863;-60
2021/05/02 00:41:46;;;;;;;67.47;49.05;;;;;;;9.47;70.38;99485.22;2178699;80;28191;-59
2021/05/02 00:45:02;;;;;;;77.03;50.78;;;;;;;9.47;70.35;99485.22;2181537;80;29979;-60
2021/05/02 00:48:15;;;;;;;65.60;46.95;;;;;;;9.43;70.46;99479.20;2204029;80;31197;-60
2021/05/02 00:51:18;;;;;;;68.72;49.33;;;;;;;9.48;70.57;99478.08;2212087;80;33224;-60
2021/05/02 00:54:32;;;;;;;69.00;49.15;;;;;;;9.50;70.48;99471.68;2194570;80;28897;-60
2021/05/02 00:57:57;;;;;;;67.78;48.08;;;;;;;9.55;70.51;99458.03;2180623;80;27653;-60
2021/05/02 01:01:00;;;;;;;66.95;48.10;;;;;;;9.58;70.46;99450.72;2205350;80;28826;-60
2021/05/02 01:04:04;;;;;;;68.47;48.95;;;;;;;9.56;70.53;99439.25;2195792;80;31146;-60
2021/05/02 01:07:11;;;;;;;68.70;48.33;;;;;;;9.51;70.62;99442.66;2181389;80;34098;-60
2021/05/02 01:10:17;;;;;;;69.32;48.87;;;;;;;9.47;70.77;99426.41;2216570;80;28943;-60
2021/05/02 01:13:19;;;;;;;73.42;49.98;;;;;;;9.43;71.02;99406.17;2199663;80;27738;-60
2021/05/02 01:16:25;;;;;;;70.55;50.15;;;;;;;9.41;71.18;99402.73;2178714;80;29764;-61
2021/05/02 01:19:28;;;;;;;66.57;49.13;;;;;;;9.39;71.44;99398.79;2183781;80;31110;-60
2021/05/02 01:22:33;;;;;;;70.10;48.23;;;;;;;9.39;71.53;99391.27;2211837;79;33081;-60
2021/05/02 01:25:35;;;;;;;72.60;50.75;;;;;;;9.34;71.90;99382.19;2206514;79;32524;-60
2021/05/02 01:28:40;;;;;;;75.30;52.17;;;;;;;9.27;72.13;99370.97;2202377;79;27644;-61
2021/05/02 01:31:44;;;;;;;71.53;50.00;;;;;;;9.19;72.35;99353.67;2211360;79;28824;-60
2021/05/02 01:34:46;;;;;;;66.00;47.25;;;;;;;9.10;72.86;99334.58;2196857;79;32161;-60
2021/05/02 01:37:51;;;;;;;71.05;48.15;;;;;;;9.02;73.59;99323.46;2192164;79;33110;-60
2021/05/02 01:40:54;;;;;;;72.42;47.95;;;;;;;8.93;73.50;99313.34;2165357;81;28867;-59
2021/05/02 01:43:56;;;;;;;75.30;54.03;;;;;;;8.86;73.84;99314.63;2204393;79;28212;-60
2021/05/02 01:47:06;;;;;;;76.82;53.75;;;;;;;8.80;74.15;99322.08;2224256;79;29867;-59
2021/05/02 01:50:11;;;;;;;87.62;51.58;;;;;;;8.74;74.21;99315.74;2219287;79;32145;-58
2021/05/02 01:53:14;;;;;;;79.07;50.20;;;;;;;8.68;74.55;99306.77;2227050;79;33243;-59
2021/05/02 01:56:17;;;;;;;68.78;50.38;;;;;;;8.60;75.03;99303.67;2226201;79;29810;-61
2021/05/02 01:59:20;;;;;;;78.83;53.52;;;;;;;8.57;75.10;99294.50;2216374;79;28168;-59
2021/05/02 02:02:23;;;;;;;74.20;53.58;;;;;;;8.53;75.29;99294.28;2178626;79;28928;-58
2021/05/02 02:05:26;;;;;;;77.60;52.40;;;;;;;8.51;75.46;99290.38;2216456;79;31150;-58
2021/05/02 02:08:28;;;;;;;83.35;54.05;;;;;;;8.50;75.48;99273.52;2188674;81;34059;-59
2021/05/02 02:11:31;;;;;;;84.40;55.52;;;;;;;8.50;75.91;99257.50;2189562;79;28856;-58
2021/05/02 02:14:36;;;;;;;85.65;54.98;;;;;;;8.51;77.50;99255.67;2215581;79;27716;-59
2021/05/02 02:17:38;;;;;;;;;;;;;;;8.48;79.37;99255.39;2227696;79;28834;-58
2021/05/02 02:20:45;;;;;;;99.40;58.33;;;;;;;8.46;80.88;99249.70;2218803;79;31137;-60
2021/05/02 02:24:01;;;;;;;84.72;57.27;;;;;;;8.41;81.24;99239.30;2203233;79;33124;-59
2021/05/02 02:27:05;;;;;;;71.57;48.52;;;;;;;8.38;81.90;99214.61;2227217;79;28878;-60
2021/05/02 02:30:12;;;;;;;85.70;57.60;;;;;;;8.30;82.24;99193.22;2195935;79;27825;-60
2021/05/02 02:33:15;;;;;;;74.58;51.85;;;;;;;8.27;82.58;99175.20;2219719;79;28899;-62
2021/05/02 02:36:18;;;;;;;80.05;53.17;;;;;;;8.26;83.23;99169.48;2213718;79;33427;-64
2021/05/02 02:39:20;;;;;;;79.05;53.68;;;;;;;8.23;83.28;99158.98;2195544;79;33187;-61
2021/05/02 02:42:26;;;;;;;83.27;57.60;;;;;;;8.17;83.34;99145.08;2208927;79;30257;-61
2021/05/02 02:45:34;;;;;;;76.25;54.90;;;;;;;8.14;83.59;99142.58;2217379;79;28375;-60
2021/05/02 02:48:38;;;;;;;86.47;58.45;;;;;;;8.13;83.84;99135.98;2189313;79;29719;-61
2021/05/02 02:51:42;;;;;;;75.92;52.20;;;;;;;8.11;84.03;99137.91;2177511;80;31140;-67
2021/05/02 02:54:49;;;;;;;70.25;50.45;;;;;;;8.13;84.23;99135.98;2160455;80;32969;-64
2021/05/02 02:57:57;;;;;;;77.78;52.08;;;;;;;8.15;84.22;99139.42;2123036;82;28982;-63
2021/05/02 03:01:04;;;;;;;80.77;56.58;;;;;;;8.18;84.34;99149.92;2120848;82;27771;-60
2021/05/02 03:04:06;;;;;;;75.62;53.05;;;;;;;8.24;84.58;99152.23;2199442;80;31119;-66
2021/05/02 03:07:10;;;;;;;76.33;52.33;;;;;;;8.29;84.58;99138.63;2184291;80;32117;-60
2021/05/02 03:10:14;;;;;;;85.62;49.85;;;;;;;8.33;84.69;99144.17;2182937;81;33068;-62
2021/05/02 03:13:16;;;;;;;70.75;48.15;;;;;;;8.33;84.44;99141.01;2197922;80;28868;-62
2021/05/02 03:16:26;;;;;;;69.72;47.50;;;;;;;8.37;84.82;99156.36;2185324;80;28147;-62
2021/05/02 03:19:28;;;;;;;73.02;48.55;;;;;;;8.37;84.70;99155.02;2193825;80;28974;-70
2021/05/02 03:22:59;;;;;;;62.88;43.02;;;;;;;8.40;84.81;99146.00;2189634;80;31078;-66
2021/05/02 03:26:06;;;;;;;59.15;40.60;;;;;;;8.44;84.86;99136.38;2206221;80;33612;-63
2021/05/02 03:29:11;;;;;;;52.48;38.33;;;;;;;8.43;84.78;99135.98;2213661;80;28864;-61
2021/05/02 03:32:15;;;;;;;49.95;35.65;;;;;;;8.49;84.97;99134.79;2193191;80;27627;-63
2021/05/02 03:35:20;;;;;;;47.45;34.50;;;;;;;8.50;84.84;99121.83;2200983;80;28811;-64
2021/05/02 03:38:27;;;;;;;57.48;42.48;;;;;;;8.44;84.55;99116.84;2219129;80;31154;-68
2021/05/02 03:41:33;;;;;;;51.98;37.13;;;;;;;8.45;84.88;99113.20;2165172;81;33201;-70
2021/05/02 03:44:35;;;;;;;49.20;33.65;;;;;;;8.44;84.87;99112.35;2184950;80;28149;-60
2021/05/02 03:47:38;;;;;;;48.35;32.55;;;;;;;8.46;84.86;99117.13;2185787;80;27614;-68
2021/05/02 03:50:40;;;;;;;44.35;32.67;;;;;;;8.53;85.08;99116.31;2183223;80;29079;-61
2021/05/02 03:53:42;;;;;;;43.52;32.93;;;;;;;8.54;84.93;99112.69;2200848;80;31137;-64
2021/05/02 03:56:46;;;;;;;42.93;31.90;;;;;;;8.50;84.74;99102.69;2207157;80;33135;-63
2021/05/02 03:59:49;;;;;;;45.25;30.80;;;;;;;8.44;84.51;99094.16;2183051;80;28863;-60
2021/05/02 04:02:51;;;;;;;40.00;28.62;;;;;;;8.40;84.71;99080.13;2183244;80;28289;-61
2021/05/02 04:05:54;;;;;;;36.98;27.15;;;;;;;8.41;84.87;99072.50;2190026;80;28859;-60
2021/05/02 04:08:56;;;;;;;36.30;26.17;;;;;;;8.42;84.84;99070.70;2201710;80;31172;-60
2021/05/02 04:11:58;;;;;;;37.05;26.90;;;;;;;8.43;84.75;99069.76;2183513;80;33083;-62
2021/05/02 04:15:01;;;;;;;34.43;26.20;;;;;;;8.47;85.07;99077.94;2182755;80;29033;-62
2021/05/02 04:18:04;;;;;;;33.67;24.65;;;;;;;8.52;85.14;99094.58;2211341;80;27662;-60
2021/05/02 04:21:06;;;;;;;30.23;22.95;;;;;;;8.57;85.24;99104.97;2219482;80;29013;-60
2021/05/02 04:24:09;;;;;;;31.82;22.67;;;;;;;8.61;85.14;99095.83;2172748;80;31141;-61
2021/05/02 04:27:12;;;;;;;31.80;22.37;;;;;;;8.61;84.88;99084.66;2181685;80;33132;-60
2021/05/02 04:30:16;;;;;;;29.07;21.97;;;;;;;8.59;84.83;99085.25;2162458;80;29236;-67
2021/05/02 04:33:18;;;;;;;30.68;21.95;;;;;;;8.61;85.04;99100.67;2161663;82;27628;-60
2021/05/02 04:36:20;;;;;;;26.93;19.77;;;;;;;8.68;85.32;99116.33;2165404;80;28828;-61
2021/05/02 04:39:24;;;;;;;26.15;18.65;;;;;;;8.75;85.52;99133.70;2163904;80;31149;-61
2021/05/02 04:42:26;;;;;;;30.95;21.42;;;;;;;8.85;85.52;99128.66;2161598;81;33968;-61
2021/05/02 04:45:28;;;;;;;28.12;21.27;;;;;;;8.92;85.53;99124.19;2161758;82;29153;-60
2021/05/02 04:48:31;;;;;;;40.10;30.10;;;;;;;8.96;85.18;99115.49;2180101;80;27654;-63
2021/05/02 04:51:35;;;;;;;28.30;20.17;;;;;;;8.92;84.94;99104.16;2199508;80;28947;-60
2021/05/02 04:54:37;;;;;;;23.73;18.27;;;;;;;8.86;84.72;99098.30;2187872;80;31182;-62
2021/05/02 04:57:39;;;;;;;25.77;18.02;;;;;;;8.85;84.82;99102.80;2168698;80;33092;-62
2021/05/02 05:00:41;;;;;;;24.57;17.30;;;;;;;8.84;84.69;99107.76;2168673;80;29587;-64
2021/05/02 05:03:45;;;;;;;28.23;20.62;;;;;;;8.86;84.75;99111.66;2163533;80;27807;-64
2021/05/02 05:06:48;;;;;;;28.70;21.75;;;;;;;8.86;84.77;99097.84;2174371;80;28840;-61
2021/05/02 05:09:50;;;;;;;32.28;22.37;;;;;;;8.86;84.59;99082.28;2170699;80;31194;-62
2021/05/02 05:12:53;;;;;;;31.48;22.60;;;;;;;8.77;84.26;99069.89;2167457;81;33140;-62
2021/05/02 05:16:00;;;;;;;26.12;19.92;;;;;;;8.71;84.12;99054.73;2178228;80;29103;-63
2021/05/02 05:19:03;;;;;;;22.27;15.60;;;;;;;8.64;84.04;99054.27;2164317;81;27761;-63
2021/05/02 05:22:05;;;;;;;20.92;15.53;;;;;;;8.63;84.17;99052.05;2167777;81;29730;-66
2021/05/02 05:25:09;;;;;;;19.75;15.00;;;;;;;8.62;84.21;99059.67;2170870;81;31140;-65
2021/05/02 05:28:12;;;;;;;21.57;16.48;;;;;;;8.60;84.22;99069.63;2176939;81;33982;-65
2021/05/02 05:31:14;;;;;;;22.42;15.30;;;;;;;8.56;84.28;99062.75;2174179;81;29588;-62
2021/05/02 05:34:16;;;;;;;17.17;12.28;;;;;;;8.54;84.37;99055.30;2171622;81;27663;-61
2021/05/02 05:37:19;;;;;;;19.05;11.12;;;;;;;8.50;84.33;99043.97;2148331;81;28847;-63
2021/05/02 05:40:23;;;;;;;28.80;11.57;;;;;;;8.43;84.04;99022.56;2176305;81;31561;-68
2021/05/02 05:43:25;;;;;;;14.17;10.57;;;;;;;8.36;84.15;98980.72;2179838;81;33172;-70
2021/05/02 05:46:28;;;;;;;17.25;11.48;;;;;;;8.30;84.22;98956.23;2180571;81;29039;-65
2021/05/02 05:49:30;;;;;;;13.68;9.43;;;;;;;8.21;84.41;98937.16;2145674;81;27724;-65
2021/05/02 05:52:32;;;;;;;15.78;9.93;;;;;;;8.16;84.50;98920.60;2151371;81;29785;-63
2021/05/02 05:55:35;;;;;;;17.60;8.78;;;;;;;8.12;84.85;98915.07;2168990;81;32125;-62
2021/05/02 05:58:37;;;;;;;15.98;10.80;;;;;;;8.09;84.86;98902.41;2179755;81;33106;-69
2021/05/02 06:01:39;;;;;;;20.43;10.93;;;;;;;8.03;85.16;98891.16;2178733;81;29158;-63
2021/05/02 06:04:41;;;;;;;12.45;10.10;;;;;;;8.05;85.36;98885.26;2174725;81;27659;-62
2021/05/02 06:07:44;;;;;;;15.98;12.20;;;;;;;8.09;85.47;98892.58;2181855;81;28733;-65
2021/05/02 06:10:46;;;;;;;15.20;12.00;;;;;;;8.07;85.24;98883.81;2181057;81;32509;-66
2021/05/02 06:13:48;;;;;;;12.23;10.08;;;;;;;8.09;85.35;98891.74;2168380;81;33085;-63
2021/05/02 06:16:50;;;;;;;14.95;9.63;;;;;;;8.09;85.40;98891.25;2182983;81;29623;-67
2021/05/02 06:19:53;;;;;;;13.45;9.73;;;;;;;8.10;85.46;98896.13;2182803;81;27958;-63
2021/05/02 06:22:55;;;;;;;11.38;8.70;;;;;;;8.12;85.44;98891.52;2172724;80;28835;-65
2021/05/02 06:25:58;;;;;;;10.28;8.53;;;;;;;8.10;85.25;98889.45;2162578;80;31136;-67
2021/05/02 06:29:00;;;;;;;12.23;9.45;;;;;;;8.08;85.16;98877.53;2161287;82;33179;-63
2021/05/02 06:32:02;;;;;;;10.68;9.58;;;;;;;8.05;85.25;98875.05;2161526;82;30392;-64
2021/05/02 06:35:06;;;;;;;14.35;9.60;;;;;;;8.01;85.15;98870.39;2169734;80;27797;-64
2021/05/02 06:38:08;;;;;;;11.93;8.80;;;;;;;8.00;85.21;98882.01;2179964;81;28916;-66
2021/05/02 06:41:10;;;;;;;10.82;9.08;;;;;;;7.99;85.13;98871.45;2173540;81;31551;-62
2021/05/02 06:44:13;;;;;;;10.82;8.45;;;;;;;7.95;84.99;98872.09;2173362;81;33143;-65
2021/05/02 06:47:15;;;;;;;10.78;8.98;;;;;;;7.96;85.11;98872.97;2177998;81;30024;-65
2021/05/02 06:50:17;;;;;;;10.10;8.78;;;;;;;7.91;84.96;98877.26;2194384;81;27793;-65
2021/05/02 06:53:20;;;;;;;12.63;9.13;;;;;;;7.87;85.03;98883.72;2173781;81;28847;-69
2021/05/02 06:56:25;;;;;;;9.10;7.78;;;;;;;7.85;85.29;98885.16;2119676;83;31223;-65
2021/05/02 06:59:28;;;;;;;9.60;7.37;;;;;;;7.83;85.25;98891.52;2169922;81;33166;-65
2021/05/02 07:02:30;;;;;;;8.28;6.95;;;;;;;7.83;85.35;98891.52;2195170;81;31522;-64
2021/05/02 07:05:33;;;;;;;10.10;7.97;;;;;;;7.79;85.20;98900.65;2191103;81;27668;-62
2021/05/02 07:08:37;;;;;;;20.02;11.45;;;;;;;7.78;85.37;98890.47;2161665;81;29375;-64
2021/05/02 07:11:39;;;;;;;8.75;7.10;;;;;;;7.79;85.44;98895.31;2183225;81;33486;-63
2021/05/02 07:14:41;;;;;;;11.68;7.00;;;;;;;7.79;85.53;98892.66;2183186;81;34022;-63
2021/05/02 07:17:44;;;;;;;7.10;5.87;;;;;;;7.80;85.63;98887.25;2151603;81;28826;-62
2021/05/02 07:20:48;;;;;;;7.65;6.30;;;;;;;7.83;85.50;98895.52;2191267;81;27663;-65
2021/05/02 07:23:51;;;;;;;7.90;6.17;;;;;;;7.84;85.47;98890.57;2193906;81;28916;-63
2021/05/02 07:26:54;;;;;;;8.53;5.90;;;;;;;7.86;85.56;98886.01;2191215;81;32030;-62
2021/05/02 07:29:56;;;;;;;6.72;5.65;;;;;;;7.86;85.41;98882.01;2194022;81;35578;-63
2021/05/02 07:32:58;;;;;;;8.85;6.10;;;;;;;7.88;85.44;98878.28;2194594;81;29597;-69
2021/05/02 07:36:01;;;;;;;7.17;6.08;;;;;;;7.91;85.50;98882.59;2194908;80;27887;-63
2021/05/02 07:39:09;;;;;;;8.33;5.87;;;;;;;7.96;85.51;98879.63;2193488;81;28829;-63
2021/05/02 07:42:12;;;;;;;8.25;6.78;;;;;;;7.94;85.19;98875.74;2179338;81;31769;-76
2021/05/02 07:45:15;;;;;;;10.70;8.85;;;;;;;7.94;85.34;98873.08;2158108;81;33107;-73
2021/05/02 07:48:17;;;;;;;12.30;10.30;;;;;;;7.94;85.43;98866.87;2160398;81;30107;-75
2021/05/02 07:51:20;;;;;;;8.83;7.47;;;;;;;7.98;85.45;98870.58;2180298;81;27311;-73
2021/05/02 07:54:22;;;;;;;8.13;7.25;;;;;;;7.97;85.30;98872.02;2193877;81;29570;-75
2021/05/02 07:57:27;;;;;;;7.25;6.55;;;;;;;7.99;85.31;98866.12;2195671;81;32464;-76
2021/05/02 08:00:29;;;;;;;8.73;7.50;;;;;;;8.01;85.47;98874.39;2195349;81;33766;-67
2021/05/02 08:03:31;;;;;;;11.68;9.78;;;;;;;8.05;85.46;98865.25;2177650;81;30580;-65
2021/05/02 08:06:39;;;;;;;8.55;7.45;;;;;;;8.05;85.49;98865.71;2158021;81;27692;-74
2021/05/02 08:09:44;;;;;;;11.70;7.83;;;;;;;8.08;85.41;98857.52;2157492;82;31182;-66
2021/05/02 08:12:46;;;;;;;9.68;7.50;;;;;;;8.08;85.23;98854.86;2157550;82;31145;-70
2021/05/02 08:15:48;;;;;;;9.70;7.72;;;;;;;8.10;85.26;98862.29;2177398;81;33577;-71
2021/05/02 08:18:51;;;;;;;8.78;6.58;;;;;;;8.14;85.70;98849.16;2182754;81;29171;-76
2021/05/02 08:21:54;;;;;;;10.25;6.20;;;;;;;8.18;85.42;98847.14;2182856;81;27676;-73
2021/05/02 08:24:56;;;;;;;8.68;7.42;;;;;;;8.23;85.38;98855.72;2195287;80;28896;-74
2021/05/02 08:27:58;;;;;;;8.78;6.53;;;;;;;8.28;85.56;98856.75;2191729;80;31148;-75
2021/05/02 08:31:00;;;;;;;7.25;6.53;;;;;;;8.34;85.63;98870.55;2198488;80;33137;-78
2021/05/02 08:34:03;;;;;;;7.00;6.30;;;;;;;8.37;85.53;98870.83;2201743;80;30052;-63
2021/05/02 08:37:06;;;;;;;7.40;6.05;;;;;;;8.39;85.45;98872.92;2177166;81;27797;-64
2021/05/02 08:40:10;;;;;;;6.97;6.17;;;;;;;8.45;85.52;98881.88;2216915;80;30286;-66
2021/05/02 08:43:13;;;;;;;6.33;4.67;;;;;;;8.53;85.76;98884.09;2195572;80;31142;-68
2021/05/02 08:46:15;;;;;;;7.92;5.87;;;;;;;8.61;85.59;98892.94;2180000;79;35463;-62
2021/05/02 08:49:19;;;;;;;6.80;4.75;;;;;;;8.72;85.76;98898.44;2178356;81;29171;-61
2021/05/02 08:52:21;;;;;;;5.97;4.47;;;;;;;8.80;85.68;98901.94;2178722;81;27655;-62
2021/05/02 08:55:23;;;;;;;6.62;5.10;;;;;;;8.88;85.62;98903.65;2198181;80;28835;-62
2021/05/02 08:58:26;;;;;;;7.35;5.12;;;;;;;8.95;85.64;98902.77;2217314;80;31361;-63
2021/05/02 09:01:31;;;;;;;7.28;6.15;;;;;;;8.99;85.51;98903.41;2217338;80;33131;-62
2021/05/02 09:04:35;;;;;;;6.72;5.40;;;;;;;9.02;85.57;98905.39;2143380;81;29155;-63
2021/05/02 09:07:42;;;;;;;8.43;6.22;;;;;;;9.07;85.59;98913.97;2133812;81;28041;-62
2021/05/02 09:10:49;;;;;;;8.58;6.47;;;;;;;9.09;85.54;98916.06;2158202;80;29779;-63
2021/05/02 09:13:53;;;;;;;9.13;6.78;;;;;;;9.10;85.30;98915.61;2216552;80;31252;-62
2021/05/02 09:17:01;;;;;;;7.42;6.35;;;;;;;9.04;84.99;98917.33;2216337;80;33126;-62
2021/05/02 09:20:05;;;;;;;9.20;5.35;;;;;;;8.99;84.99;98924.78;2216457;80;30028;-67
2021/05/02 09:23:08;;;;;;;7.05;5.62;;;;;;;8.99;85.27;98929.66;2217096;80;27683;-69
2021/05/02 09:26:31;;;;;;;9.33;5.95;;;;;;;8.97;85.07;98928.41;2216571;80;29276;-66
2021/05/02 09:29:34;;;;;;;6.75;5.53;;;;;;;8.95;84.98;98942.83;2216997;80;30959;-65
2021/05/02 09:32:45;;;;;;;13.62;10.38;;;;;;;8.93;85.06;98948.28;2215317;80;34064;-64
2021/05/02 09:35:49;;;;;;;10.40;6.12;;;;;;;8.91;85.00;98953.33;2216553;80;29172;-72
2021/05/02 09:38:51;;;;;;;;;;;;;;;8.88;84.95;98954.39;2219754;80;27785;-63
2021/05/02 09:42:21;;;;;;;8.10;5.40;;;;;;;8.87;85.09;98957.14;2216515;80;28841;-64
2021/05/02 09:45:25;;;;;;;12.28;8.63;;;;;;;8.89;85.27;98960.58;2217341;79;31133;-68
2021/05/02 09:51:52;;;;;;;11.83;7.87;;;;;;;8.94;85.08;98964.66;2343090;76;31392;-62
2021/05/02 09:54:54;;;;;;;6.65;5.08;;;;;;;8.89;85.16;98976.60;2303734;77;27582;-61
2021/05/02 09:58:11;;;;;;;7.60;6.00;;;;;;;8.87;85.03;98978.51;2298482;77;30160;-62
2021/05/02 10:01:16;;;;;;;7.83;5.17;;;;;;;8.81;84.91;98996.66;2263845;77;33464;-63
2021/05/02 10:04:18;;;;;;;5.17;4.55;;;;;;;8.75;85.08;98993.03;2265129;77;33099;-61
2021/05/02 10:07:26;;;;;;;6.17;5.47;;;;;;;8.85;85.35;99006.66;2261342;78;29103;-65
2021/05/02 10:10:29;;;;;;;8.13;4.90;;;;;;;8.95;85.62;99013.61;2262013;77;27663;-62
2021/05/02 10:13:36;;;;;;;9.18;6.03;;;;;;;9.04;85.59;99014.34;2269374;77;29363;-64
2021/05/02 10:16:38;;;;;;;10.05;6.55;;;;;;;9.12;85.25;99012.05;2210527;80;31189;-63
2021/05/02 10:19:42;;;;;;;17.90;9.38;;;;;;;9.19;85.25;99020.98;2198761;80;33797;-66
2021/05/02 10:22:44;;;;;;;11.73;7.33;;;;;;;9.21;85.20;99026.63;2161224;80;28902;-68
2021/05/02 10:25:48;;;;;;;10.65;6.37;;;;;;;9.26;85.33;99023.66;2219711;80;27680;-64
2021/05/02 10:28:50;;;;;;;7.83;4.72;;;;;;;9.23;84.66;99043.43;2219607;80;28845;-65
2021/05/02 10:32:09;;;;;;;8.40;5.28;;;;;;;9.24;84.96;99041.14;2208386;80;33415;-64
2021/05/02 10:35:13;;;;;;;8.25;5.40;;;;;;;9.25;85.17;99053.55;2183447;80;34120;-73
2021/05/02 10:38:22;;;;;;;7.95;6.45;;;;;;;9.24;84.77;99057.17;2190293;79;29839;-73
2021/05/02 10:41:39;;;;;;;12.58;10.03;;;;;;;9.26;84.99;99064.61;2189975;81;27681;-65
2021/05/02 10:44:41;;;;;;;8.25;6.92;;;;;;;9.26;84.94;99071.30;2138176;83;27900;-69
2021/05/02 10:47:43;;;;;;;6.65;5.22;;;;;;;9.24;84.74;99076.34;2144823;82;31154;-65
2021/05/02 10:50:51;;;;;;;7.62;6.00;;;;;;;9.24;84.93;99092.38;2162337;82;33132;-62
2021/05/02 10:54:28;;;;;;;5.17;4.42;;;;;;;9.26;84.81;99098.48;2148805;82;29735;-62
2021/05/02 10:57:41;;;;;;;9.27;6.50;;;;;;;9.28;84.67;99102.77;2341270;76;31490;-61
2021/05/02 11:00:59;;;;;;;8.03;4.90;;;;;;;9.27;84.76;99118.41;2281123;77;27712;-61
2021/05/02 11:04:02;;;;;;;8.10;6.80;;;;;;;9.32;84.63;99123.95;2303413;77;29229;-61
2021/05/02 11:07:04;;;;;;;6.12;3.50;;;;;;;9.40;85.13;99137.21;2282478;77;31383;-63
2021/05/02 11:10:11;;;;;;;9.30;4.87;;;;;;;9.52;84.83;99138.25;2264941;77;33549;-62
2021/05/02 11:13:28;;;;;;;9.18;5.33;;;;;;;9.58;84.54;99145.02;2272179;77;28544;-62
2021/05/02 11:16:30;;;;;;;10.20;6.62;;;;;;;9.66;84.57;99149.41;2262036;77;27648;-61
2021/05/02 11:19:38;;;;;;;12.43;7.03;;;;;;;9.80;84.77;99158.34;2260445;78;30111;-64
2021/05/02 11:22:47;;;;;;;9.23;6.72;;;;;;;9.96;84.92;99169.77;2261975;77;32013;-66
2021/05/02 11:29:16;;;;;;;6.23;4.90;;;;;;;10.02;84.40;99176.52;2251970;77;30580;-64
2021/05/02 11:32:16;;;;;;;7.47;4.83;;;;;;;9.82;83.88;99175.16;2215906;80;28110;-63
2021/05/02 11:35:23;;;;;;;9.78;6.05;;;;;;;9.68;83.19;99184.06;2159856;81;32651;-64
2021/05/02 11:38:40;;;;;;;4.53;3.55;;;;;;;9.52;83.42;99183.70;2185431;80;31240;-62
2021/05/02 11:42:02;;;;;;;4.53;2.75;;;;;;;9.47;83.53;99187.13;2216807;80;33230;-65
2021/05/02 11:45:06;;;;;;;3.72;2.40;;;;;;;9.33;82.95;99196.50;2216131;80;28544;-64
2021/05/02 11:48:09;;;;;;;5.78;2.65;;;;;;;9.20;83.32;99202.61;2213770;80;27664;-62
2021/05/02 11:51:23;;;;;;;5.45;3.77;;;;;;;9.18;83.73;99215.70;2159540;81;29681;-62
2021/05/02 11:54:26;;;;;;;3.52;2.85;;;;;;;9.11;83.37;99225.88;2198893;80;31114;-62
2021/05/02 11:57:33;;;;;;;2.85;2.20;;;;;;;9.05;83.50;99227.11;2178162;81;33785;-62
2021/05/02 12:00:42;;;;;;;6.80;4.20;;;;;;;8.99;83.41;99228.84;2174679;81;29684;-64
2021/05/02 12:03:45;;;;;;;3.30;2.65;;;;;;;8.92;83.57;99236.83;2206228;80;27691;-62
2021/05/02 12:06:49;;;;;;;4.87;3.20;;;;;;;8.86;83.53;99247.41;2183210;80;28811;-63
2021/05/02 12:09:51;;;;;;;4.55;2.58;;;;;;;8.83;83.89;99249.41;2151366;80;31234;-64
2021/05/02 12:12:54;;;;;;;3.45;2.22;;;;;;;8.79;83.40;99264.73;2136826;83;33602;-64
2021/05/02 12:16:09;;;;;;;3.95;2.77;;;;;;;8.80;83.66;99262.45;2103100;84;27764;-62
2021/05/02 12:19:12;;;;;;;24.47;13.55;;;;;;;8.90;83.91;99280.12;2138367;83;27736;-63
2021/05/02 12:22:15;;;;;;;6.22;4.85;;;;;;;9.09;84.02;99282.58;2136169;83;28775;-66
2021/05/02 12:25:20;;;;;;;;;;;;;;;9.23;83.93;99294.63;2105372;84;31196;-62
2021/05/02 12:28:22;;;;;;;5.28;4.45;;;;;;;9.32;83.95;99303.91;2130535;83;33061;-64
2021/05/02 12:31:24;;;;;;;6.60;5.87;;;;;;;9.36;83.73;99313.92;2108045;83;28858;-70
2021/05/02 12:34:33;;;;;;;7.30;5.97;;;;;;;9.38;83.61;99321.38;2131311;83;27721;-70
2021/05/02 12:37:37;;;;;;;4.37;3.85;;;;;;;9.37;83.55;99322.33;2100868;83;28827;-65
2021/05/02 12:40:52;;;;;;;4.47;4.03;;;;;;;9.32;83.42;99335.98;2094460;83;31149;-63
2021/05/02 12:43:54;;;;;;;3.47;3.17;;;;;;;9.26;83.35;99343.89;2094260;85;33093;-65
2021/05/02 12:47:00;;;;;;;3.80;3.15;;;;;;;9.24;83.44;99351.14;2094956;83;28524;-63
2021/05/02 12:50:08;;;;;;;3.35;3.05;;;;;;;9.19;83.41;99368.37;2123085;83;27749;-67
2021/05/02 12:53:11;;;;;;;5.20;3.60;;;;;;;9.12;82.98;99359.39;2094227;85;28822;-63
2021/05/02 12:56:18;;;;;;;9.88;5.55;;;;;;;9.04;83.16;99372.33;2094781;83;32110;-63
2021/05/02 13:02:49;;;;;;;4.50;3.53;;;;;;;9.10;83.73;99385.83;2247732;78;30582;-62
2021/05/02 13:06:04;;;;;;;4.05;3.33;;;;;;;9.12;83.31;99391.45;2227700;79;27724;-62
2021/05/02 13:09:07;;;;;;;5.65;3.50;;;;;;;9.20;83.60;99399.48;2228665;79;30500;-63
2021/05/02 13:12:12;;;;;;;4.67;3.83;;;;;;;9.32;83.28;99404.59;2216281;79;31147;-61
2021/05/02 13:15:17;;;;;;;6.25;4.17;;;;;;;9.42;83.52;99411.13;2210117;79;33123;-61
2021/05/02 13:18:20;;;;;;;6.00;3.08;;;;;;;9.51;83.12;99423.94;2223066;79;28528;-64
2021/05/02 13:21:25;;;;;;;3.90;3.50;;;;;;;9.48;82.86;99432.62;2227953;79;27719;-63
2021/05/02 13:24:28;;;;;;;4.12;2.98;;;;;;;9.45;82.81;99442.16;2228206;79;29979;-61
2021/05/02 13:27:51;;;;;;;3.22;2.70;;;;;;;9.46;82.80;99444.73;2227802;79;31159;-65
2021/05/02 13:30:53;;;;;;;7.70;5.03;;;;;;;9.56;82.84;99465.11;2225952;79;33333;-64
2021/05/02 13:33:57;;;;;;;5.00;3.50;;;;;;;9.69;83.00;99467.43;2212227;79;29678;-64
2021/05/02 13:37:00;;;;;;;5.35;3.80;;;;;;;9.73;82.61;99464.97;2228147;79;27914;-63
2021/05/02 13:40:04;;;;;;;3.37;2.60;;;;;;;9.71;81.91;99470.03;2228020;79;31106;-64
2021/05/02 13:43:08;;;;;;;5.53;2.67;;;;;;;9.72;81.87;99479.29;2228117;79;32063;-63
2021/05/02 13:46:10;;;;;;;3.15;2.70;;;;;;;9.84;81.18;99497.77;2227888;79;34000;-62
2021/05/02 13:49:14;;;;;;;3.72;2.35;;;;;;;9.92;81.14;99493.78;2228406;79;29834;-62
2021/05/02 13:52:17;;;;;;;5.95;3.33;;;;;;;9.91;80.70;99502.77;2228684;79;27734;-67
2021/05/02 13:55:20;;;;;;;4.15;2.92;;;;;;;9.97;80.87;99513.08;2228382;79;29746;-62
2021/05/02 13:58:23;;;;;;;2.98;2.25;;;;;;;9.97;80.34;99521.98;2225890;79;32131;-61
2021/05/02 14:01:26;;;;;;;3.10;2.80;;;;;;;9.89;79.99;99525.58;2185058;81;33135;-64
2021/05/02 14:04:29;;;;;;;5.03;3.85;;;;;;;9.82;79.91;99537.13;2215878;80;29815;-61
2021/05/02 14:07:31;;;;;;;2.60;2.40;;;;;;;9.83;79.97;99540.67;2192427;80;27979;-61
2021/05/02 14:10:34;;;;;;;5.58;5.08;;;;;;;9.84;79.21;99547.26;2188364;79;28824;-61
2021/05/02 14:13:36;;;;;;;2.40;2.12;;;;;;;9.84;79.37;99559.30;2178793;81;31206;-67
2021/05/02 14:16:39;;;;;;;2.00;1.80;;;;;;;9.90;79.37;99571.94;2208787;80;33206;-70
2021/05/02 14:19:42;;;;;;;3.17;2.15;;;;;;;9.85;78.62;99574.86;2134527;82;28866;-69
2021/05/02 14:22:45;;;;;;;2.70;2.50;;;;;;;9.72;78.83;99583.60;2208594;79;27709;-68
2021/05/02 14:25:50;;;;;;;2.70;2.27;;;;;;;9.70;78.90;99591.34;2207986;80;28837;-66
2021/05/02 14:28:52;;;;;;;2.92;2.08;;;;;;;;;;2197207;78;31912;-62
2021/05/02 14:31:54;;;;;;;3.27;2.42;;;;;;;9.55;78.67;99608.66;2250883;78;33102;-71
2021/05/02 14:34:57;;;;;;;4.47;2.62;;;;;;;9.48;78.90;99615.77;2240535;78;28847;-65
2021/05/02 14:37:59;;;;;;;3.12;2.25;;;;;;;9.43;78.96;99622.23;2181993;80;27765;-62
2021/05/02 14:41:01;;;;;;;3.72;2.40;;;;;;;9.37;78.71;99620.37;2217303;80;29253;-62